Time;durP1;ratioP1;P1;durP2;ratioP2;P2;SDS_P1;SDS_P2;PMS_P1;PMS_P2;Temp;Humidity;BMP_temperature;BMP_pressure;BME280_temperature;BME280_humidity;BME280_pressure;Samples;Min_cycle;Max_cycle;Signal;HPM_P1;HPM_P2
2022/08/27 00:00:04;;;;;;;1999.90;999.90;;;19.80;99.90;;;;;;5056308;28;20454;-72
2022/08/27 00:02:34;;;;;;;1999.90;999.90;;;19.80;99.90;;;;;;5056369;28;20402;-72
2022/08/27 00:05:00;;;;;;;1999.90;999.90;;;19.80;99.90;;;;;;5056171;28;20441;-72
2022/08/27 00:07:26;;;;;;;1999.90;999.90;;;19.80;99.90;;;;;;5055628;28;20412;-71
2022/08/27 00:09:52;;;;;;;1999.90;999.90;;;19.80;99.90;;;;;;5055947;28;20818;-71
2022/08/27 00:12:18;;;;;;;1999.90;999.90;;;19.80;99.90;;;;;;5057303;28;20224;-71
2022/08/27 00:14:43;;;;;;;1999.90;999.90;;;19.80;99.90;;;;;;5056423;28;20172;-71
2022/08/27 00:17:10;;;;;;;1999.90;999.90;;;19.90;99.90;;;;;;5055751;28;20168;-71
2022/08/27 00:19:37;;;;;;;1999.90;999.90;;;20.00;99.90;;;;;;5056013;28;20200;-72
2022/08/27 00:22:05;;;;;;;1999.90;999.90;;;20.00;99.90;;;;;;5056104;28;20415;-71
2022/08/27 00:24:30;;;;;;;1999.90;999.90;;;20.00;99.90;;;;;;5055790;28;20453;-72
2022/08/27 00:26:56;;;;;;;1999.90;999.90;;;20.00;99.90;;;;;;5056129;28;20416;-72
2022/08/27 00:29:22;;;;;;;1999.90;999.90;;;20.10;99.90;;;;;;5056380;28;20202;-71
2022/08/27 00:31:48;;;;;;;1999.90;999.90;;;20.10;99.90;;;;;;5055499;28;20172;-72
2022/08/27 00:34:13;;;;;;;1999.90;999.90;;;20.00;99.90;;;;;;5053452;28;20438;-72
2022/08/27 00:36:40;;;;;;;1999.90;999.90;;;20.00;99.90;;;;;;5053096;28;20242;-72
2022/08/27 00:39:06;;;;;;;1999.90;999.90;;;20.10;99.90;;;;;;5053053;28;20195;-72
2022/08/27 00:41:32;;;;;;;1999.90;999.90;;;20.10;99.90;;;;;;5053259;28;20420;-72
2022/08/27 00:44:00;;;;;;;1999.90;999.90;;;20.20;99.90;;;;;;5053048;28;20242;-72
2022/08/27 00:46:28;;;;;;;1999.90;999.90;;;20.20;99.90;;;;;;5052987;28;20411;-72
2022/08/27 00:49:00;;;;;;;1999.90;999.90;;;20.20;99.90;;;;;;5052982;28;20901;-72
2022/08/27 00:51:28;;;;;;;1999.90;999.90;;;20.20;99.90;;;;;;5053013;28;20402;-72
2022/08/27 00:53:56;;;;;;;1999.90;999.90;;;20.10;99.90;;;;;;5052967;28;20756;-72
2022/08/27 00:56:26;;;;;;;1999.90;999.90;;;20.10;99.90;;;;;;5052685;28;20443;-72
2022/08/27 00:58:53;;;;;;;1999.90;999.90;;;20.10;99.90;;;;;;5052808;28;20438;-72
2022/08/27 01:01:22;;;;;;;1999.90;999.90;;;20.10;99.90;;;;;;5052992;28;20929;-72
2022/08/27 01:03:51;;;;;;;1999.90;999.90;;;20.10;99.90;;;;;;5052715;28;20411;-72
2022/08/27 01:06:19;;;;;;;1999.90;999.90;;;20.00;99.90;;;;;;5052615;28;20517;-72
2022/08/27 01:08:50;;;;;;;1999.90;999.90;;;19.90;99.90;;;;;;5052589;28;20429;-72
2022/08/27 01:11:16;;;;;;;1999.90;999.90;;;19.80;99.90;;;;;;5052756;28;20417;-72
2022/08/27 01:13:42;;;;;;;1999.90;999.90;;;19.80;99.90;;;;;;5052714;28;20410;-72
2022/08/27 01:16:10;;;;;;;1999.90;999.90;;;19.80;99.90;;;;;;5052325;28;20179;-72
2022/08/27 01:18:37;;;;;;;1999.90;999.90;;;19.90;99.90;;;;;;5052494;28;20963;-71
2022/08/27 01:21:19;;;;;;;1999.90;999.90;;;19.80;99.90;;;;;;5052378;28;20537;-72
2022/08/27 01:24:01;;;;;;;1999.90;999.90;;;19.70;99.90;;;;;;5052414;28;20969;-72
2022/08/27 01:26:29;;;;;;;1999.90;999.90;;;19.50;99.90;;;;;;5052217;28;20412;-72
2022/08/27 01:28:54;;;;;;;1999.90;999.90;;;19.40;99.90;;;;;;5051934;28;20417;-72
2022/08/27 01:31:20;;;;;;;1999.90;999.90;;;19.30;99.90;;;;;;5052331;28;20893;-72
2022/08/27 01:34:04;;;;;;;1999.90;999.90;;;19.20;99.90;;;;;;5052337;28;20169;-72
2022/08/27 01:36:30;;;;;;;1999.90;999.90;;;19.10;99.90;;;;;;5051971;28;20174;-72
2022/08/27 01:38:56;;;;;;;1999.90;999.90;;;19.00;99.90;;;;;;5052162;28;20409;-72
2022/08/27 01:41:23;;;;;;;1999.90;999.90;;;18.90;99.90;;;;;;5052139;28;20400;-72
2022/08/27 01:43:49;;;;;;;1999.90;999.90;;;18.80;99.90;;;;;;5052055;28;20405;-72
2022/08/27 01:46:26;;;;;;;1999.90;999.90;;;18.80;99.90;;;;;;5051878;28;20425;-72
2022/08/27 01:48:51;;;;;;;1999.90;999.90;;;18.80;99.90;;;;;;5051923;28;20411;-72
2022/08/27 01:51:18;;;;;;;1999.90;999.90;;;18.80;99.90;;;;;;5052049;28;20412;-72
2022/08/27 01:53:44;;;;;;;1999.90;999.90;;;18.80;99.90;;;;;;5052110;28;20175;-72
2022/08/27 01:56:10;;;;;;;1999.90;999.90;;;18.80;99.90;;;;;;5051656;28;20405;-72
2022/08/27 01:58:37;;;;;;;1999.90;999.90;;;18.80;99.90;;;;;;5052144;28;20181;-72
2022/08/27 02:01:10;;;;;;;1999.90;999.90;;;18.70;99.90;;;;;;5051978;28;20435;-72
2022/08/27 02:03:38;;;;;;;1999.90;999.90;;;18.60;99.90;;;;;;5051909;28;21129;-72
2022/08/27 02:06:06;;;;;;;1999.90;999.90;;;18.60;99.90;;;;;;5051537;28;20413;-72
2022/08/27 02:08:32;;;;;;;1999.90;999.90;;;18.70;99.90;;;;;;5051712;28;20422;-72
2022/08/27 02:10:58;;;;;;;1999.90;999.90;;;18.60;99.90;;;;;;5051739;28;20433;-72
2022/08/27 02:13:24;;;;;;;1999.90;999.90;;;18.60;99.90;;;;;;5051843;28;20412;-72
2022/08/27 02:15:50;;;;;;;1999.90;999.90;;;18.60;99.90;;;;;;5051669;28;20423;-73
2022/08/27 02:18:16;;;;;;;1999.90;999.90;;;18.60;99.90;;;;;;5051700;28;20182;-72
2022/08/27 02:20:44;;;;;;;1999.90;999.90;;;18.60;99.90;;;;;;5051698;28;20463;-72
2022/08/27 02:23:10;;;;;;;1999.90;999.90;;;18.60;99.90;;;;;;5051686;28;20178;-72
2022/08/27 02:25:35;;;;;;;1999.90;999.90;;;18.50;99.90;;;;;;5051687;28;20473;-72
2022/08/27 02:28:03;;;;;;;1999.90;999.90;;;18.50;99.90;;;;;;5051451;28;20179;-72
2022/08/27 02:30:31;;;;;;;1999.90;999.90;;;18.50;99.90;;;;;;5051544;28;20206;-72
2022/08/27 02:32:59;;;;;;;1999.90;999.90;;;18.50;99.90;;;;;;5051607;28;20448;-72
2022/08/27 02:35:25;;;;;;;1999.90;999.90;;;18.50;99.90;;;;;;5051504;28;20421;-72
2022/08/27 02:37:51;;;;;;;1999.90;999.90;;;18.50;99.90;;;;;;5051282;28;20421;-72
2022/08/27 02:40:19;;;;;;;1999.90;999.90;;;18.50;99.90;;;;;;5051956;28;20486;-72
2022/08/27 02:42:45;;;;;;;1999.90;999.90;;;18.40;99.90;;;;;;5055546;28;20453;-72
2022/08/27 02:45:12;;;;;;;1999.90;999.90;;;18.30;99.90;;;;;;5055474;28;20422;-72
2022/08/27 02:47:38;;;;;;;1999.90;999.90;;;18.30;99.90;;;;;;5055182;28;20409;-72
2022/08/27 02:50:05;;;;;;;1999.90;999.90;;;18.30;99.90;;;;;;5055233;28;20937;-72
2022/08/27 02:52:30;;;;;;;1999.90;999.90;;;18.30;99.90;;;;;;5055251;28;20967;-71
2022/08/27 02:54:57;;;;;;;1999.90;999.90;;;18.20;99.90;;;;;;5055312;28;20405;-71
2022/08/27 02:57:23;;;;;;;1999.90;999.90;;;18.20;99.90;;;;;;5055101;28;20547;-72
2022/08/27 02:59:50;;;;;;;1999.90;999.90;;;18.20;99.90;;;;;;5055112;28;20422;-72
2022/08/27 03:02:16;;;;;;;1999.90;999.90;;;18.10;99.90;;;;;;5055098;28;20785;-72
2022/08/27 03:04:41;;;;;;;1999.90;999.90;;;18.10;99.90;;;;;;5054931;28;20451;-72
2022/08/27 03:07:07;;;;;;;1999.90;999.90;;;18.10;99.90;;;;;;5054738;28;20170;-71
2022/08/27 03:09:33;;;;;;;1999.90;999.90;;;18.00;99.90;;;;;;5054973;28;20190;-71
2022/08/27 03:12:00;;;;;;;1999.90;999.90;;;18.00;99.90;;;;;;5055115;28;20193;-71
2022/08/27 03:14:26;;;;;;;1999.90;999.90;;;18.00;99.90;;;;;;5055005;28;20771;-71
2022/08/27 03:16:51;;;;;;;1999.90;999.90;;;18.00;99.90;;;;;;5054582;28;20463;-71
2022/08/27 03:19:17;;;;;;;1999.90;999.90;;;18.10;99.90;;;;;;5054684;28;20626;-71
2022/08/27 03:21:43;;;;;;;1999.90;999.90;;;18.10;99.90;;;;;;5054823;28;20172;-71
2022/08/27 03:24:09;;;;;;;1999.90;999.90;;;18.10;99.90;;;;;;5054878;28;20206;-71
2022/08/27 03:26:34;;;;;;;1999.90;999.90;;;18.10;99.90;;;;;;5054461;28;20773;-71
2022/08/27 03:29:00;;;;;;;1999.90;999.90;;;18.10;99.90;;;;;;5054454;28;20171;-71
2022/08/27 03:31:28;;;;;;;1999.90;999.90;;;18.10;99.90;;;;;;5054639;28;20168;-71
2022/08/27 03:33:58;;;;;;;1999.90;999.90;;;18.10;99.90;;;;;;5054450;28;20462;-71
2022/08/27 03:36:26;;;;;;;1999.90;999.90;;;18.10;99.90;;;;;;5054272;28;20486;-71
2022/08/27 03:38:52;;;;;;;1999.90;999.90;;;18.10;99.90;;;;;;5054409;28;20414;-71
2022/08/27 03:41:18;;;;;;;1999.90;999.90;;;18.00;99.90;;;;;;5054409;28;20401;-71
2022/08/27 03:43:44;;;;;;;1999.90;999.90;;;18.10;99.90;;;;;;5054347;28;20432;-71
2022/08/27 03:46:10;;;;;;;1999.90;999.90;;;18.10;99.90;;;;;;5054045;28;20776;-71
2022/08/27 03:48:36;;;;;;;1999.90;999.90;;;18.10;99.90;;;;;;5054240;28;20412;-71
2022/08/27 03:51:10;;;;;;;1999.90;999.90;;;18.10;99.90;;;;;;5054143;28;20189;-71
2022/08/27 03:53:37;;;;;;;1999.90;999.90;;;18.10;99.90;;;;;;5054203;28;20406;-71
2022/08/27 03:56:05;;;;;;;1999.90;999.90;;;18.10;99.90;;;;;;5053820;28;20412;-71
2022/08/27 03:58:31;;;;;;;1999.90;999.90;;;18.10;99.90;;;;;;5054100;28;20404;-71
2022/08/27 04:00:56;;;;;;;1999.90;999.90;;;18.10;99.90;;;;;;5053978;28;21007;-71
2022/08/27 04:03:22;;;;;;;1999.90;999.90;;;18.10;99.90;;;;;;5053904;28;20481;-71
2022/08/27 04:05:55;;;;;;;1999.90;999.90;;;18.00;99.90;;;;;;5053994;28;20543;-71
2022/08/27 04:08:21;;;;;;;1999.90;999.90;;;18.00;99.90;;;;;;5053751;28;20168;-70
2022/08/27 04:10:48;;;;;;;1999.90;999.90;;;18.00;99.90;;;;;;5053822;28;20431;-70
2022/08/27 04:13:16;;;;;;;1999.90;999.90;;;18.00;99.90;;;;;;5053750;28;20416;-71
2022/08/27 04:15:47;;;;;;;1999.90;999.90;;;18.00;99.90;;;;;;5053746;28;20764;-71
2022/08/27 04:18:15;;;;;;;1999.90;999.90;;;18.00;99.90;;;;;;5053377;28;20410;-71
2022/08/27 04:20:45;;;;;;;1999.90;999.90;;;18.00;99.90;;;;;;5053740;28;20445;-71
2022/08/27 04:23:10;;;;;;;1999.90;999.90;;;18.00;99.90;;;;;;5053608;28;20464;-71
2022/08/27 04:25:40;;;;;;;1999.90;999.90;;;18.00;99.90;;;;;;5053567;28;20447;-71
2022/08/27 04:28:06;;;;;;;1999.90;999.90;;;18.00;99.90;;;;;;5053205;28;20220;-71
2022/08/27 04:30:32;;;;;;;1999.90;999.90;;;17.90;99.90;;;;;;5053325;28;20451;-71
2022/08/27 04:32:58;;;;;;;1999.90;999.90;;;18.00;99.90;;;;;;5053572;28;20409;-71
2022/08/27 04:35:24;;;;;;;1999.90;999.90;;;18.00;99.90;;;;;;5053392;28;20641;-71
2022/08/27 04:37:50;;;;;;;1999.90;999.90;;;18.00;99.90;;;;;;5053095;28;20673;-71
2022/08/27 04:40:15;;;;;;;1999.90;999.90;;;18.00;99.90;;;;;;5053144;28;20431;-71
2022/08/27 04:42:41;;;;;;;1999.90;999.90;;;18.00;99.90;;;;;;5053222;28;20171;-70
2022/08/27 04:45:07;;;;;;;1999.90;999.90;;;18.00;99.90;;;;;;5053144;28;20481;-71
2022/08/27 04:47:33;;;;;;;1999.90;999.90;;;18.00;99.90;;;;;;5052867;28;20634;-71
2022/08/27 04:49:59;;;;;;;1999.90;999.90;;;17.90;99.90;;;;;;5053000;28;20416;-71
2022/08/27 04:52:25;;;;;;;1999.90;999.90;;;17.90;99.90;;;;;;5053030;28;20412;-71
2022/08/27 04:54:50;;;;;;;1999.90;999.90;;;17.90;99.90;;;;;;5053033;28;20222;-71
2022/08/27 04:57:16;;;;;;;1999.90;999.90;;;17.90;99.90;;;;;;5052617;28;20177;-71
2022/08/27 04:59:42;;;;;;;1999.90;999.90;;;18.00;99.90;;;;;;5052869;28;20195;-71
2022/08/27 05:02:09;;;;;;;1999.90;999.90;;;18.00;99.90;;;;;;5052867;28;20178;-70
2022/08/27 05:04:38;;;;;;;1999.90;999.90;;;18.00;99.90;;;;;;5052313;28;20191;-71
2022/08/27 05:07:03;;;;;;;1999.90;999.90;;;17.90;99.90;;;;;;5052459;28;20919;-71
2022/08/27 05:09:29;;;;;;;1999.90;999.90;;;17.90;99.90;;;;;;5052717;28;20440;-71
2022/08/27 05:11:55;;;;;;;1999.90;999.90;;;17.90;99.90;;;;;;5052629;28;20409;-71
2022/08/27 05:14:22;;;;;;;1999.90;999.90;;;17.90;99.90;;;;;;5052813;28;20173;-71
2022/08/27 05:16:48;;;;;;;1999.90;999.90;;;17.90;99.90;;;;;;5052454;28;20676;-71
2022/08/27 05:19:14;;;;;;;1999.90;999.90;;;18.00;99.90;;;;;;5052566;28;20511;-71
2022/08/27 05:21:47;;;;;;;1999.90;999.90;;;18.00;99.90;;;;;;5052617;28;20182;-71
2022/08/27 05:24:13;;;;;;;1999.90;999.90;;;18.00;99.90;;;;;;5052462;28;20474;-71
2022/08/27 05:26:39;;;;;;;1999.90;999.90;;;18.10;99.90;;;;;;5052072;28;20416;-71
2022/08/27 05:29:05;;;;;;;1999.90;999.90;;;18.10;99.90;;;;;;5052417;28;20514;-71
2022/08/27 05:31:31;;;;;;;1999.90;999.90;;;18.30;99.90;;;;;;5052460;28;20196;-71
2022/08/27 05:33:57;;;;;;;1999.90;999.90;;;18.30;99.90;;;;;;5052358;28;20234;-71
2022/08/27 05:36:26;;;;;;;1999.90;999.90;;;18.20;99.90;;;;;;5052034;28;20399;-70
2022/08/27 05:38:53;;;;;;;1999.90;999.90;;;18.20;99.90;;;;;;5052185;28;20173;-71
2022/08/27 05:41:26;;;;;;;1999.90;999.90;;;18.10;99.90;;;;;;5052429;28;20810;-71
2022/08/27 05:43:53;;;;;;;1999.90;999.90;;;18.10;99.90;;;;;;5052288;28;20407;-71
2022/08/27 05:46:22;;;;;;;1999.90;999.90;;;18.10;99.90;;;;;;5052501;28;21157;-72
2022/08/27 05:48:49;;;;;;;1999.90;999.90;;;18.20;99.90;;;;;;5054284;28;20403;-71
2022/08/27 05:51:20;;;;;;;1999.90;999.90;;;18.30;99.90;;;;;;5054175;28;20409;-71
2022/08/27 05:53:46;;;;;;;1999.90;999.90;;;18.40;99.90;;;;;;5054039;28;20400;-71
2022/08/27 05:56:14;;;;;;;1999.90;999.90;;;18.50;99.90;;;;;;5053625;28;20459;-71
2022/08/27 06:01:24;;;;;;;1999.90;999.90;;;18.50;99.90;;;;;;5054053;28;20499;-71
2022/08/27 06:03:51;;;;;;;1999.90;999.90;;;18.50;99.90;;;;;;5053807;28;20428;-71
2022/08/27 06:06:17;;;;;;;1999.90;999.90;;;18.40;99.90;;;;;;5053262;28;20417;-71
2022/08/27 06:08:43;;;;;;;1999.90;999.90;;;18.40;99.90;;;;;;5053372;28;20464;-71
2022/08/27 06:11:10;;;;;;;1999.90;999.90;;;18.40;99.90;;;;;;5053309;28;20413;-71
2022/08/27 06:13:36;;;;;;;1999.90;999.90;;;18.30;99.90;;;;;;5053253;28;20181;-71
2022/08/27 06:16:14;;;;;;;1999.90;999.90;;;18.20;99.90;;;;;;5054061;28;20417;-71
2022/08/27 06:18:41;;;;;;;1999.90;999.90;;;18.20;99.90;;;;;;5056796;28;20901;-70
2022/08/27 06:21:07;;;;;;;1999.90;999.90;;;18.20;99.90;;;;;;5056686;28;20430;-71
2022/08/27 06:23:34;;;;;;;1999.90;999.90;;;18.10;99.90;;;;;;5056705;28;20407;-71
2022/08/27 06:26:00;;;;;;;1999.90;999.90;;;18.10;99.90;;;;;;5056381;28;20882;-71
2022/08/27 06:28:28;;;;;;;1999.90;999.90;;;18.10;99.90;;;;;;5057029;28;20479;-71
2022/08/27 06:31:06;;;;;;;1999.90;999.90;;;18.20;99.90;;;;;;5056524;28;20448;-71
2022/08/27 06:33:31;;;;;;;1999.90;999.90;;;18.10;99.90;;;;;;5056251;28;20416;-71
2022/08/27 06:35:59;;;;;;;1999.90;999.90;;;18.10;99.90;;;;;;5055601;28;20508;-71
2022/08/27 06:38:26;;;;;;;1999.90;999.90;;;18.10;99.90;;;;;;5055669;28;20681;-71
2022/08/27 06:40:52;;;;;;;1999.90;999.90;;;18.00;99.90;;;;;;5055506;28;20435;-71
2022/08/27 06:43:18;;;;;;;1999.90;999.90;;;17.90;99.90;;;;;;5055504;28;20474;-71
2022/08/27 06:45:43;;;;;;;1999.90;999.90;;;17.90;99.90;;;;;;5055343;28;20538;-71
2022/08/27 06:48:09;;;;;;;1999.90;999.90;;;17.80;99.90;;;;;;5055167;28;20647;-71
2022/08/27 06:50:39;;;;;;;1999.90;999.90;;;17.90;99.90;;;;;;5055294;28;20209;-71
2022/08/27 06:53:05;;;;;;;1999.90;999.90;;;17.90;99.90;;;;;;5055330;28;20249;-71
2022/08/27 06:55:32;;;;;;;1999.90;999.90;;;17.90;99.90;;;;;;5055292;28;20553;-71
2022/08/27 06:57:57;;;;;;;1999.90;999.90;;;17.90;99.90;;;;;;5054934;28;20402;-72
2022/08/27 07:00:24;;;;;;;1999.90;999.90;;;17.90;99.90;;;;;;5055092;28;20497;-72
2022/08/27 07:02:50;;;;;;;1999.90;999.90;;;18.00;99.90;;;;;;5055307;28;20192;-72
2022/08/27 07:05:16;;;;;;;1999.90;999.90;;;18.10;99.90;;;;;;5054937;28;20462;-71
2022/08/27 07:07:41;;;;;;;1999.90;999.90;;;18.10;99.90;;;;;;5054796;28;20522;-71
2022/08/27 07:10:08;;;;;;;1999.90;999.90;;;18.00;99.90;;;;;;5055045;28;20434;-71
2022/08/27 07:12:33;;;;;;;1999.90;999.90;;;17.80;99.90;;;;;;5054954;28;20246;-71
2022/08/27 07:14:59;;;;;;;1999.90;999.90;;;17.70;99.90;;;;;;5054941;28;20518;-71
2022/08/27 07:17:24;;;;;;;1999.90;999.90;;;17.70;99.90;;;;;;5054934;28;20288;-71
2022/08/27 07:19:50;;;;;;;1999.90;999.90;;;17.70;99.90;;;;;;5054733;28;20200;-72
2022/08/27 07:22:16;;;;;;;1999.90;999.90;;;17.80;99.90;;;;;;5054823;28;20250;-72
2022/08/27 07:24:41;;;;;;;1999.90;999.90;;;17.80;99.90;;;;;;5054755;28;20576;-72
2022/08/27 07:27:07;;;;;;;1999.90;999.90;;;17.90;99.90;;;;;;5054020;28;20174;-72
2022/08/27 07:29:33;;;;;;;1999.90;999.90;;;17.90;99.90;;;;;;5054393;28;20669;-72
2022/08/27 07:31:58;;;;;;;1999.90;999.90;;;18.00;99.90;;;;;;5054614;28;20411;-71
2022/08/27 07:34:24;;;;;;;1999.90;999.90;;;18.00;99.90;;;;;;5054575;28;20178;-71
2022/08/27 07:36:50;;;;;;;1999.90;999.90;;;18.00;99.90;;;;;;5054201;28;20173;-71
2022/08/27 07:39:15;;;;;;;1999.90;999.90;;;18.00;99.90;;;;;;5054472;28;20252;-71
2022/08/27 07:44:26;;;;;;;1999.90;999.90;;;17.90;99.90;;;;;;5054326;28;20256;-71
2022/08/27 07:46:54;;;;;;;1999.90;999.90;;;17.90;99.90;;;;;;5054285;28;20419;-72
2022/08/27 07:49:21;;;;;;;1999.90;999.90;;;17.90;99.90;;;;;;5054250;28;20526;-72
2022/08/27 07:51:48;;;;;;;1999.90;999.90;;;18.00;99.90;;;;;;5054290;28;20512;-72
2022/08/27 07:54:14;;;;;;;1999.90;999.90;;;17.90;99.90;;;;;;5054245;28;20463;-72
2022/08/27 07:56:41;;;;;;;1999.90;999.90;;;17.90;99.90;;;;;;5053807;28;20413;-71
2022/08/27 07:59:07;;;;;;;1999.90;999.90;;;17.80;99.90;;;;;;5053993;28;20515;-71
2022/08/27 08:01:33;;;;;;;1999.90;999.90;;;17.70;99.90;;;;;;5054102;28;20405;-71
2022/08/27 08:03:59;;;;;;;1999.90;999.90;;;17.50;99.90;;;;;;5053963;28;20916;-71
2022/08/27 08:06:24;;;;;;;1999.90;999.90;;;17.40;99.90;;;;;;5053709;28;20178;-71
2022/08/27 08:08:50;;;;;;;1999.90;999.90;;;17.30;99.90;;;;;;5053862;28;20173;-72
2022/08/27 08:11:17;;;;;;;1999.90;999.90;;;17.10;99.90;;;;;;5053875;28;20540;-72
2022/08/27 08:13:44;;;;;;;1999.90;999.90;;;17.10;99.90;;;;;;5053802;28;20175;-72
2022/08/27 08:16:10;;;;;;;1999.90;999.90;;;17.10;99.90;;;;;;5053577;28;20427;-72
2022/08/27 08:18:37;;;;;;;1999.90;999.90;;;17.20;99.90;;;;;;5053597;28;20907;-72
2022/08/27 08:21:12;;;;;;;1999.90;999.90;;;17.10;99.90;;;;;;5053649;28;20427;-72
2022/08/27 08:23:38;;;;;;;1999.90;999.90;;;17.00;99.90;;;;;;5053552;28;20403;-71
2022/08/27 08:26:05;;;;;;;1999.90;999.90;;;16.90;99.90;;;;;;5053422;28;20495;-71
2022/08/27 08:28:31;;;;;;;1999.90;999.90;;;16.90;99.90;;;;;;5053602;28;20913;-72
2022/08/27 08:30:57;;;;;;;1999.90;999.90;;;16.90;99.90;;;;;;5053328;28;20445;-71
2022/08/27 08:33:23;;;;;;;1999.90;999.90;;;16.90;99.90;;;;;;5053478;28;20191;-72
2022/08/27 08:35:49;;;;;;;1999.90;999.90;;;16.90;99.90;;;;;;5053336;28;20450;-72
2022/08/27 08:38:17;;;;;;;1999.90;999.90;;;17.00;99.90;;;;;;5052329;28;20441;-72
2022/08/27 08:40:48;;;;;;;1999.90;999.90;;;17.00;99.90;;;;;;5053235;28;20206;-72
2022/08/27 08:43:32;;;;;;;1999.90;999.90;;;17.00;99.90;;;;;;5053267;28;20421;-72
2022/08/27 08:46:08;;;;;;;1999.90;999.90;;;17.00;99.90;;;;;;5052969;28;20544;-72
2022/08/27 08:48:35;;;;;;;1999.90;999.90;;;17.00;99.90;;;;;;5053196;28;20470;-71
2022/08/27 08:51:12;;;;;;;1999.90;999.90;;;17.10;99.90;;;;;;5053056;28;20452;-71
2022/08/27 08:53:58;;;;;;;1999.90;999.90;;;17.10;99.90;;;;;;5051017;28;20507;-71
2022/08/27 08:56:49;;;;;;;1999.90;999.90;;;17.30;99.90;;;;;;5052001;28;20412;-71
2022/08/27 08:59:34;;;;;;;1999.90;999.90;;;17.40;99.90;;;;;;5052122;28;20421;-70
2022/08/27 09:02:00;;;;;;;1999.90;999.90;;;17.40;99.90;;;;;;5052950;28;20788;-70
2022/08/27 09:04:27;;;;;;;1999.90;999.90;;;17.40;99.90;;;;;;5052517;28;20445;-70
2022/08/27 09:07:23;;;;;;;1999.90;999.90;;;17.30;99.90;;;;;;5052472;28;20404;-69
2022/08/27 09:09:55;;;;;;;1999.90;999.90;;;17.40;99.90;;;;;;5052580;28;20433;-70
2022/08/27 09:12:25;;;;;;;1999.90;999.90;;;17.40;99.90;;;;;;5052675;28;20409;-72
2022/08/27 09:15:05;;;;;;;1999.90;999.90;;;17.50;99.90;;;;;;5052800;28;20838;-72
2022/08/27 09:17:32;;;;;;;1999.90;999.90;;;17.50;99.90;;;;;;5052387;28;20407;-72
2022/08/27 09:19:58;;;;;;;1999.90;999.90;;;17.50;99.90;;;;;;5052488;28;20529;-72
2022/08/27 09:22:48;;;;;;;1999.90;999.90;;;17.60;99.90;;;;;;5052503;28;20410;-71
2022/08/27 09:25:44;;;;;;;1999.90;999.90;;;17.60;99.90;;;;;;5052172;28;20977;-73
2022/08/27 09:31:04;;;;;;;1999.90;999.90;;;17.60;99.90;;;;;;5052511;28;20808;-73
2022/08/27 09:33:30;;;;;;;1999.90;999.90;;;17.70;99.90;;;;;;5052445;28;20410;-73
2022/08/27 09:36:02;;;;;;;1999.90;999.90;;;17.70;99.90;;;;;;5052095;28;20491;-73
2022/08/27 09:38:33;;;;;;;1999.90;999.90;;;17.70;99.90;;;;;;5052178;28;20497;-73
2022/08/27 09:41:04;;;;;;;1999.90;999.90;;;17.60;99.90;;;;;;5052069;28;20434;-73
2022/08/27 09:43:32;;;;;;;1999.90;999.90;;;17.60;99.90;;;;;;5052132;28;20409;-73
2022/08/27 09:46:20;;;;;;;1999.90;999.90;;;17.70;99.90;;;;;;5051534;28;20508;-72
2022/08/27 09:48:46;;;;;;;1999.90;999.90;;;17.80;99.90;;;;;;5051918;28;20951;-73
2022/08/27 09:51:16;;;;;;;1999.90;999.90;;;17.90;99.90;;;;;;5051775;28;20778;-72
2022/08/27 09:53:53;;;;;;;1999.90;999.90;;;18.00;99.90;;;;;;5052169;28;20434;-73
2022/08/27 09:56:21;;;;;;;1999.90;999.90;;;18.00;99.90;;;;;;5051603;28;20398;-73
2022/08/27 09:58:52;;;;;;;1999.90;999.90;;;18.00;99.90;;;;;;5051795;28;20477;-73
2022/08/27 10:01:24;;;;;;;1999.90;999.90;;;18.10;99.90;;;;;;5051849;28;20402;-73
2022/08/27 10:04:01;;;;;;;1999.90;999.90;;;18.20;99.90;;;;;;5052388;28;20411;-73
2022/08/27 10:06:28;;;;;;;1999.90;999.90;;;18.30;99.90;;;;;;5051742;28;20413;-72
2022/08/27 10:09:05;;;;;;;1999.90;999.90;;;18.40;99.90;;;;;;5052234;28;20411;-72
2022/08/27 10:12:09;;;;;;;1999.90;999.90;;;18.50;99.90;;;;;;5052138;28;20491;-72
2022/08/27 10:14:42;;;;;;;1999.90;999.90;;;18.60;99.90;;;;;;5001565;28;20425;-73
2022/08/27 10:17:17;;;;;;;1999.90;999.90;;;18.70;99.90;;;;;;5017792;28;20404;-72
2022/08/27 10:20:02;;;;;;;1999.90;999.90;;;18.70;99.90;;;;;;5034680;28;20530;-73
2022/08/27 10:22:36;;;;;;;1999.90;999.90;;;18.70;99.90;;;;;;5051896;28;20684;-72
2022/08/27 10:25:38;;;;;;;1999.90;999.90;;;18.80;99.90;;;;;;5051476;28;20818;-72
2022/08/27 10:28:28;;;;;;;1999.90;999.90;;;18.80;99.90;;;;;;5038766;28;20502;-73
2022/08/27 10:31:10;;;;;;;1999.90;999.90;;;19.00;99.90;;;;;;5051728;28;20425;-72
2022/08/27 10:33:38;;;;;;;1999.90;999.90;;;19.20;99.90;;;;;;5051808;28;20402;-72
2022/08/27 10:36:25;;;;;;;1999.90;999.90;;;19.20;99.90;;;;;;5051508;28;20424;-72
2022/08/27 10:39:02;;;;;;;1999.90;999.90;;;19.20;99.90;;;;;;5051514;28;20771;-72
2022/08/27 10:41:44;;;;;;;1999.90;999.90;;;19.20;99.90;;;;;;5051798;28;20428;-72
2022/08/27 10:44:28;;;;;;;1999.90;999.90;;;19.30;99.90;;;;;;5051574;28;20513;-72
2022/08/27 10:46:56;;;;;;;1999.90;999.90;;;19.30;99.90;;;;;;5051180;28;20469;-72
2022/08/27 10:49:36;;;;;;;1999.90;999.90;;;19.30;99.90;;;;;;5051520;28;20459;-73
2022/08/27 10:52:25;;;;;;;1999.90;999.90;;;19.30;99.90;;;;;;5051616;28;20408;-72
2022/08/27 10:55:02;;;;;;;1999.90;999.90;;;19.30;99.90;;;;;;5051589;28;20472;-72
2022/08/27 10:57:58;;;;;;;1999.90;999.90;;;19.40;99.90;;;;;;5051231;28;20416;-73
2022/08/27 11:00:54;;;;;;;1999.90;999.90;;;19.40;99.90;;;;;;5051638;28;20429;-72
2022/08/27 11:03:43;;;;;;;1999.90;999.90;;;19.70;99.90;;;;;;5050099;28;20423;-73
2022/08/27 11:06:30;;;;;;;1999.90;999.90;;;19.90;99.90;;;;;;5054552;28;20481;-72
2022/08/27 11:09:02;;;;;;;1999.90;999.90;;;20.10;99.90;;;;;;5055002;28;20399;-72
2022/08/27 11:11:35;;;;;;;1999.90;999.90;;;20.20;99.90;;;;;;5055130;28;20880;-72
2022/08/27 11:14:06;;;;;;;1999.90;999.90;;;20.30;99.90;;;;;;5055247;28;20417;-72
2022/08/27 11:16:42;;;;;;;1999.90;999.90;;;20.40;99.90;;;;;;5054739;28;20387;-73
2022/08/27 11:19:40;;;;;;;1999.90;999.90;;;20.40;99.90;;;;;;5054642;28;20401;-74
2022/08/27 11:22:22;;;;;;;1999.90;999.90;;;20.60;99.90;;;;;;5054553;28;20880;-73
2022/08/27 11:25:00;;;;;;;1999.90;999.90;;;20.60;99.90;;;;;;5054532;28;20454;-73
2022/08/27 11:27:30;;;;;;;1999.90;999.90;;;20.70;99.90;;;;;;5054365;28;20430;-73
2022/08/27 11:29:58;;;;;;;1999.90;999.90;;;20.70;99.90;;;;;;5054366;28;20445;-72
2022/08/27 11:32:32;;;;;;;1999.90;999.90;;;20.70;99.90;;;;;;5054619;28;20444;-73
2022/08/27 11:35:08;;;;;;;1999.90;999.90;;;20.70;99.90;;;;;;5054557;28;20396;-72
2022/08/27 11:37:53;;;;;;;1999.90;999.90;;;20.70;99.90;;;;;;5054233;28;20809;-72
2022/08/27 11:40:54;;;;;;;1999.90;999.90;;;20.60;99.90;;;;;;5054390;28;20441;-72
2022/08/27 11:43:23;;;;;;;1999.90;999.90;;;20.60;99.90;;;;;;5054427;28;20531;-72
2022/08/27 11:46:04;;;;;;;1999.90;999.90;;;20.50;99.90;;;;;;5054083;28;20473;-72
2022/08/27 11:48:32;;;;;;;1999.90;999.90;;;20.60;99.90;;;;;;5054351;28;20793;-72
2022/08/27 11:50:59;;;;;;;1999.90;999.90;;;20.60;99.90;;;;;;5054250;28;20427;-72
2022/08/27 11:53:35;;;;;;;1999.90;999.90;;;20.60;99.90;;;;;;5054153;28;20502;-72
2022/08/27 11:56:19;;;;;;;1999.90;999.90;;;20.60;99.90;;;;;;5053760;28;20496;-72
2022/08/27 11:58:45;;;;;;;1999.90;999.90;;;20.40;99.90;;;;;;5053997;28;20495;-72
2022/08/27 12:01:30;;;;;;;1999.90;999.90;;;20.50;99.90;;;;;;5054100;28;20455;-72
2022/08/27 12:04:33;;;;;;;1999.90;999.90;;;20.60;99.90;;;;;;5053889;28;20408;-73
2022/08/27 12:07:16;;;;;;;1999.90;999.90;;;20.70;99.90;;;;;;5037406;28;20513;-72
2022/08/27 12:10:05;;;;;;;1999.90;999.90;;;20.70;99.90;;;;;;5047902;28;20473;-71
2022/08/27 12:12:54;;;;;;;1999.90;999.90;;;20.80;99.90;;;;;;5053084;28;20417;-70
2022/08/27 12:15:26;;;;;;;1999.90;999.90;;;20.90;99.90;;;;;;5052915;28;20442;-70
2022/08/27 12:18:10;;;;;;;1999.90;999.90;;;21.00;99.90;;;;;;5052163;28;20423;-70
2022/08/27 12:20:45;;;;;;;1999.90;999.90;;;21.00;99.90;;;;;;5053149;28;20804;-69